Highley, United Kingdom
Current Conditions -  °F | °C
As of 5:20 AM on Friday 28 Nov 2014 (Local Time) from EGBB Reporting Station
Haze Haze  
Wind Chill: 45°   Ceiling: 700
Heat Index: 48°   Visibility: 2.5mi
Dew Point: 48°   Wind: 7mph
Humidity: 100%   Direction: 100°E
Pressure: 29.59"   Gusts: NA
Location:  52.45°N, 2.38°W
Report Text: EGBB 280520Z 10006KT 4000 BR BKN007 BKN018 09/09 Q1002
Loading
Personal Weather Stations






























Interactive Weather Map New forecast layout! Learn more

10-Day Weather Forecast

Advertisements
Track Severe Weather on mobile